Time;durP1;ratioP1;P1;durP2;ratioP2;P2;SDS_P1;SDS_P2;PMS_P1;PMS_P2;Temp;Humidity;BMP_temperature;BMP_pressure;BME280_temperature;BME280_humidity;BME280_pressure;Samples;Min_cycle;Max_cycle;Signal;HPM_P1;HPM_P2
2021/09/11 00:00:40;;;;;;;6.90;5.30;;;;;;;16.88;53.04;95606.06;4984573;28;20125;-66
2021/09/11 00:03:05;;;;;;;5.63;4.80;;;;;;;16.36;54.64;95599.78;4984857;28;20364;-67
2021/09/11 00:05:31;;;;;;;6.47;5.75;;;;;;;16.38;54.55;95607.63;4984813;28;20034;-67
2021/09/11 00:07:56;;;;;;;6.13;5.13;;;;;;;15.77;56.68;95601.69;4984676;28;20034;-66
2021/09/11 00:10:22;;;;;;;6.22;4.80;;;;;;;16.34;54.78;95590.25;4983532;28;20491;-66
2021/09/11 00:12:47;;;;;;;7.53;5.20;;;;;;;16.16;55.48;95597.19;4984231;28;20065;-65
2021/09/11 00:15:14;;;;;;;5.75;4.50;;;;;;;15.99;55.88;95589.63;4966719;28;20030;-67
2021/09/11 00:17:39;;;;;;;7.45;5.75;;;;;;;16.32;54.55;95595.03;4983355;28;20089;-66
2021/09/11 00:20:05;;;;;;;5.75;4.72;;;;;;;16.80;53.29;95595.59;4983977;28;20514;-66
2021/09/11 00:22:31;;;;;;;5.63;5.05;;;;;;;16.63;53.88;95593.44;4984628;28;20290;-66
2021/09/11 00:24:56;;;;;;;6.70;5.75;;;;;;;16.30;54.71;95589.88;4982997;28;20019;-67
2021/09/11 00:27:22;;;;;;;8.05;5.05;;;;;;;16.28;54.92;95599.19;4984575;28;20038;-66
2021/09/11 00:29:47;;;;;;;5.93;5.05;;;;;;;16.67;53.32;95593.81;4984569;28;20045;-66
2021/09/11 00:32:12;;;;;;;6.97;5.32;;;;;;;16.43;54.46;95599.78;4984199;28;20042;-67
2021/09/11 00:34:38;;;;;;;6.13;5.28;;;;;;;16.56;54.02;95593.50;4983968;28;20053;-67
2021/09/11 00:37:04;;;;;;;13.48;5.80;;;;;;;16.37;54.61;95595.25;4984908;28;20445;-66
2021/09/11 00:39:29;;;;;;;6.80;5.25;;;;;;;16.42;54.19;95592.72;4983839;28;20309;-67
2021/09/11 00:41:55;;;;;;;7.88;5.30;;;;;;;15.56;57.02;95595.53;4984867;28;20042;-66
2021/09/11 00:44:20;;;;;;;6.05;5.20;;;;;;;16.10;55.64;95592.66;4966591;28;20031;-66
2021/09/11 00:46:46;;;;;;;6.80;5.10;;;;;;;16.24;54.99;95596.94;4982676;28;20510;-66
2021/09/11 00:49:11;;;;;;;8.65;5.75;;;;;;;15.86;56.06;95589.69;4984053;28;20530;-66
2021/09/11 00:51:37;;;;;;;6.57;5.70;;;;;;;15.10;58.62;95596.22;4983918;28;20613;-66
2021/09/11 00:54:02;;;;;;;10.90;5.90;;;;;;;15.16;58.31;95599.13;4966324;28;20037;-67
2021/09/11 00:56:29;;;;;;;7.35;5.50;;;;;;;15.55;57.10;95586.66;4982047;28;20478;-67
2021/09/11 00:58:54;;;;;;;6.32;5.43;;;;;;;15.91;56.21;95592.53;4981935;28;20035;-66
2021/09/11 01:01:19;;;;;;;7.80;5.40;;;;;;;15.61;56.87;95587.72;4966523;28;20041;-66
2021/09/11 01:03:45;;;;;;;7.18;4.90;;;;;;;15.78;56.50;95592.59;4982594;28;20034;-66
2021/09/11 01:06:10;;;;;;;6.45;5.28;;;;;;;15.73;56.44;95594.06;4966553;28;20030;-66
2021/09/11 01:08:37;;;;;;;7.30;5.50;;;;;;;16.10;55.46;95592.66;4983585;28;20049;-66
2021/09/11 01:11:02;;;;;;;8.40;5.35;;;;;;;16.15;55.38;95586.66;4962807;28;20026;-66
2021/09/11 01:13:28;;;;;;;6.25;5.40;;;;;;;15.96;55.69;95598.13;4981289;28;20054;-67
2021/09/11 01:15:56;;;;;;;6.10;5.00;;;;;;;15.87;56.19;95592.16;4981973;28;20156;-66
2021/09/11 01:18:22;;;;;;;10.77;6.53;;;;;;;14.43;60.42;95607.69;4966037;28;20027;-66
2021/09/11 01:20:47;;;;;;;8.15;5.95;;;;;;;14.70;60.31;95607.75;4982170;28;20038;-66
2021/09/11 01:23:12;;;;;;;11.27;6.20;;;;;;;15.12;59.26;95603.25;4983608;28;20041;-66
2021/09/11 01:25:38;;;;;;;9.45;6.25;;;;;;;15.59;57.02;95608.53;4982661;28;20038;-66
2021/09/11 01:28:04;;;;;;;6.72;5.50;;;;;;;15.86;55.95;95597.72;4981966;28;20365;-66
2021/09/11 01:30:29;;;;;;;9.60;6.15;;;;;;;15.13;58.31;95608.38;4983489;28;20524;-66
2021/09/11 01:32:54;;;;;;;14.38;6.57;;;;;;;15.24;57.78;95597.00;4983885;28;20282;-66
2021/09/11 01:35:20;;;;;;;8.68;6.13;;;;;;;15.52;56.92;95596.97;4983545;28;20378;-66
2021/09/11 01:37:45;;;;;;;7.90;5.15;;;;;;;15.88;56.27;95595.66;4984032;28;20185;-66
2021/09/11 01:40:11;;;;;;;7.25;5.90;;;;;;;16.03;55.53;95599.94;4983548;28;20062;-67
2021/09/11 01:42:37;;;;;;;6.72;5.70;;;;;;;15.71;56.71;95603.38;4982127;28;20399;-67
2021/09/11 01:45:10;;;;;;;6.80;5.38;;;;;;;16.07;55.40;95601.97;4981976;28;20073;-66
2021/09/11 01:47:37;;;;;;;7.82;5.07;;;;;;;16.22;55.15;95599.00;4981698;28;20038;-66
2021/09/11 01:50:03;;;;;;;8.40;5.90;;;;;;;15.86;56.14;95606.63;4984467;28;20601;-66
2021/09/11 01:52:28;;;;;;;8.23;5.80;;;;;;;16.13;55.13;95601.13;4986024;28;20125;-68
2021/09/11 01:54:54;;;;;;;6.45;5.60;;;;;;;15.45;57.22;95605.88;4989818;28;20080;-67
2021/09/11 01:57:19;;;;;;;7.53;5.63;;;;;;;15.81;56.20;95608.28;4989075;28;20081;-67
2021/09/11 01:59:45;;;;;;;7.55;6.40;;;;;;;14.06;61.64;95615.19;4990163;28;20396;-67
2021/09/11 02:02:10;;;;;;;7.38;5.70;;;;;;;15.72;56.81;95607.69;4990549;28;20077;-67
2021/09/11 02:04:36;;;;;;;10.27;5.85;;;;;;;15.43;57.64;95610.59;4990035;28;20546;-67
2021/09/11 02:07:02;;;;;;;6.95;5.57;;;;;;;15.78;56.08;95604.16;4988444;28;20057;-67
2021/09/11 02:09:28;;;;;;;7.85;5.82;;;;;;;15.42;57.43;95597.41;4990309;28;20038;-67
2021/09/11 02:11:53;;;;;;;8.32;5.80;;;;;;;15.48;57.00;95600.09;4988021;28;20037;-67
2021/09/11 02:14:19;;;;;;;7.30;5.93;;;;;;;15.75;56.14;95599.22;4988920;28;20491;-67
2021/09/11 02:16:44;;;;;;;10.00;6.32;;;;;;;15.80;56.19;95598.56;4989752;28;20049;-67
2021/09/11 02:19:10;;;;;;;8.30;5.70;;;;;;;15.97;55.88;95593.53;4989861;28;20031;-67
2021/09/11 02:21:35;;;;;;;7.90;6.30;;;;;;;14.64;60.06;95605.03;4988876;28;20038;-67
2021/09/11 02:24:01;;;;;;;7.05;5.95;;;;;;;15.95;55.90;95603.69;4989832;28;20046;-67
2021/09/11 02:26:26;;;;;;;10.32;5.70;;;;;;;15.94;55.61;95597.50;4989656;28;20110;-67
2021/09/11 02:28:52;;;;;;;7.68;5.80;;;;;;;15.70;56.57;95602.53;4988293;28;20035;-67
2021/09/11 02:31:17;;;;;;;7.95;6.10;;;;;;;15.59;56.77;95600.50;4972097;28;20042;-67
2021/09/11 02:33:43;;;;;;;8.00;5.05;;;;;;;16.03;55.31;95599.94;4972563;28;20045;-67
2021/09/11 02:36:08;;;;;;;9.85;5.60;;;;;;;16.10;54.99;95598.03;4989514;28;20117;-68
2021/09/11 02:38:34;;;;;;;6.03;4.97;;;;;;;15.83;56.10;95598.97;4989260;28;20381;-67
2021/09/11 02:40:59;;;;;;;7.22;5.53;;;;;;;16.28;54.85;95600.00;4989401;28;20026;-67
2021/09/11 02:43:25;;;;;;;7.15;5.40;;;;;;;16.05;55.35;95604.03;4972053;28;20035;-67
2021/09/11 02:45:50;;;;;;;7.20;5.20;;;;;;;15.73;56.57;95602.13;4989396;28;20026;-67
2021/09/11 02:48:15;;;;;;;8.30;5.88;;;;;;;15.51;57.31;95600.69;4989349;28;20043;-67
2021/09/11 02:50:41;;;;;;;10.13;6.20;;;;;;;15.55;56.70;95601.91;4989007;28;20081;-67
2021/09/11 02:53:06;;;;;;;7.35;5.50;;;;;;;15.83;56.11;95598.16;4989711;28;20033;-67
2021/09/11 02:55:32;;;;;;;7.07;5.70;;;;;;;16.09;55.28;95599.09;4988953;28;20041;-67
2021/09/11 02:57:57;;;;;;;7.70;5.40;;;;;;;16.24;54.84;95598.78;4989404;28;20038;-68
2021/09/11 03:00:23;;;;;;;9.35;5.50;;;;;;;16.34;54.52;95598.31;4989265;28;20034;-67
2021/09/11 03:02:48;;;;;;;8.00;5.57;;;;;;;15.74;56.37;95601.06;4988734;28;20057;-67
2021/09/11 03:05:13;;;;;;;6.90;5.32;;;;;;;15.95;55.75;95593.75;4989368;28;20034;-67
2021/09/11 03:07:39;;;;;;;8.02;5.70;;;;;;;15.64;56.46;95592.66;4987338;28;20079;-67
2021/09/11 03:10:05;;;;;;;7.82;5.47;;;;;;;16.05;55.35;95595.19;4984140;28;20081;-67
2021/09/11 03:12:30;;;;;;;8.80;5.60;;;;;;;15.80;56.18;95595.88;4960868;28;20085;-67
2021/09/11 03:14:56;;;;;;;7.50;5.63;;;;;;;15.68;56.26;95596.56;4986776;28;20050;-67
2021/09/11 03:17:21;;;;;;;8.48;5.85;;;;;;;15.43;57.38;95597.19;4971419;28;20026;-67
2021/09/11 03:19:46;;;;;;;7.00;5.93;;;;;;;15.66;56.62;95595.94;4988524;28;20041;-67
2021/09/11 03:22:12;;;;;;;7.22;5.60;;;;;;;15.77;56.08;95601.69;4989165;28;20048;-67
2021/09/11 03:24:37;;;;;;;7.47;5.88;;;;;;;15.56;56.62;95601.75;4988501;28;20050;-69
2021/09/11 03:27:03;;;;;;;7.53;5.82;;;;;;;15.67;56.39;95599.47;4986956;28;20042;-67
2021/09/11 03:29:28;;;;;;;7.50;5.57;;;;;;;15.88;55.80;95598.34;4971559;28;20030;-67
2021/09/11 03:31:54;;;;;;;6.50;5.78;;;;;;;15.65;56.40;95605.03;4988400;28;20077;-67
2021/09/11 03:34:19;;;;;;;8.63;5.70;;;;;;;15.61;56.42;95601.94;4988559;28;20088;-67
2021/09/11 03:36:45;;;;;;;8.45;6.05;;;;;;;15.95;55.35;95598.31;4988390;28;20084;-67
2021/09/11 03:39:10;;;;;;;7.55;5.60;;;;;;;16.19;54.56;95595.94;4986728;28;20442;-67
2021/09/11 03:41:35;;;;;;;8.23;5.35;;;;;;;16.18;54.76;95600.47;4987217;28;20026;-67
2021/09/11 03:44:01;;;;;;;8.63;5.65;;;;;;;16.14;54.87;95601.94;4988131;28;20038;-67
2021/09/11 03:46:26;;;;;;;6.95;5.60;;;;;;;15.64;56.15;95603.38;4988547;28;20411;-67
2021/09/11 03:48:52;;;;;;;7.97;5.90;;;;;;;15.63;56.28;95600.91;4987805;28;20042;-68
2021/09/11 03:51:17;;;;;;;9.55;6.47;;;;;;;15.45;56.74;95602.34;4988293;28;20030;-67
2021/09/11 03:53:42;;;;;;;9.32;6.40;;;;;;;15.66;56.00;95601.31;4988377;28;20057;-67
2021/09/11 03:56:08;;;;;;;8.38;5.70;;;;;;;16.13;54.66;95606.50;4987653;28;20065;-67
2021/09/11 03:58:33;;;;;;;9.23;5.93;;;;;;;16.30;54.10;95605.16;4987735;28;20038;-68
2021/09/11 04:01:01;;;;;;;8.68;5.93;;;;;;;15.61;55.82;95598.44;4988414;28;20026;-67
2021/09/11 04:03:27;;;;;;;7.95;6.05;;;;;;;15.78;54.79;95606.84;4970293;28;20031;-67
2021/09/11 04:05:52;;;;;;;7.72;4.93;;;;;;;15.46;56.42;95604.84;4968753;28;20058;-67
2021/09/11 04:08:18;;;;;;;8.13;6.35;;;;;;;15.78;55.56;95597.97;4984389;28;20038;-67
2021/09/11 04:10:43;;;;;;;7.40;5.15;;;;;;;16.22;54.29;95607.06;4983112;28;20026;-67
2021/09/11 04:13:08;;;;;;;7.00;5.93;;;;;;;16.09;54.39;95605.28;4985350;28;20055;-67
2021/09/11 04:15:34;;;;;;;7.07;5.97;;;;;;;16.35;53.65;95603.50;4987463;28;20031;-67
2021/09/11 04:17:59;;;;;;;6.30;5.47;;;;;;;16.51;53.41;95599.50;4987939;28;20030;-68
2021/09/11 04:20:25;;;;;;;8.50;6.05;;;;;;;16.60;53.14;95599.25;4987421;28;20045;-67
2021/09/11 04:22:50;;;;;;;8.45;6.10;;;;;;;16.24;54.04;95605.00;4987430;28;20478;-67
2021/09/11 04:25:16;;;;;;;9.00;5.63;;;;;;;16.36;53.93;95601.66;4986139;28;20154;-67
2021/09/11 04:27:41;;;;;;;6.88;5.75;;;;;;;16.44;53.54;95601.41;4985665;28;20054;-67
2021/09/11 04:30:07;;;;;;;8.70;6.43;;;;;;;16.21;54.12;95602.72;4986367;28;20030;-67
2021/09/11 04:32:32;;;;;;;7.38;4.95;;;;;;;16.49;53.30;95600.78;4984468;28;20078;-67
2021/09/11 04:34:58;;;;;;;8.25;4.93;;;;;;;16.60;53.05;95594.69;4982670;28;20057;-67
2021/09/11 04:37:23;;;;;;;7.30;5.15;;;;;;;16.76;52.51;95598.69;4984698;28;20034;-67
2021/09/11 04:39:49;;;;;;;9.27;5.57;;;;;;;16.75;52.51;95597.06;4984134;28;20031;-66
2021/09/11 04:42:14;;;;;;;8.48;6.18;;;;;;;16.32;53.70;95595.84;4984700;28;20042;-66
2021/09/11 04:44:40;;;;;;;5.95;4.75;;;;;;;16.39;53.75;95601.25;4982689;28;20038;-67
2021/09/11 04:47:05;;;;;;;9.23;4.80;;;;;;;16.54;53.44;95597.41;4984929;28;20034;-66
2021/09/11 04:49:30;;;;;;;8.82;4.72;;;;;;;16.64;53.45;95600.44;4984550;28;20037;-66
2021/09/11 04:51:56;;;;;;;6.50;4.82;;;;;;;16.85;52.57;95598.44;4984404;28;20042;-66
2021/09/11 04:54:21;;;;;;;6.65;4.95;;;;;;;16.97;52.28;95602.09;4984671;28;20046;-67
2021/09/11 04:56:47;;;;;;;8.25;5.85;;;;;;;16.80;52.43;95599.09;4983926;28;20038;-67
2021/09/11 04:59:12;;;;;;;9.35;5.95;;;;;;;16.51;53.08;95602.19;4966558;28;20046;-66
2021/09/11 05:01:38;;;;;;;7.43;6.00;;;;;;;16.50;53.26;95600.56;4985199;28;20085;-67
2021/09/11 05:04:04;;;;;;;8.68;6.22;;;;;;;16.83;52.33;95593.28;4982466;28;20050;-67
2021/09/11 05:06:30;;;;;;;8.90;6.05;;;;;;;16.71;52.61;95601.22;4982757;28;20327;-66
2021/09/11 05:08:55;;;;;;;5.45;4.70;;;;;;;16.63;52.91;95596.94;4966521;28;20488;-67
2021/09/11 05:11:21;;;;;;;7.70;5.75;;;;;;;16.47;53.31;95600.97;4983207;28;20058;-67
2021/09/11 05:13:46;;;;;;;8.82;5.85;;;;;;;16.39;53.38;95601.25;4984047;28;20065;-67
2021/09/11 05:16:11;;;;;;;8.77;5.95;;;;;;;16.81;52.21;95600.75;4984044;28;20050;-67
2021/09/11 05:18:37;;;;;;;9.93;6.25;;;;;;;16.58;52.73;95596.78;4983420;28;20395;-66
2021/09/11 05:21:06;;;;;;;8.57;6.10;;;;;;;16.35;53.62;95606.19;4983109;28;20407;-65
2021/09/11 05:23:32;;;;;;;8.68;6.50;;;;;;;16.66;52.69;95598.38;4982332;28;20034;-65
2021/09/11 05:25:59;;;;;;;8.27;6.10;;;;;;;16.56;52.92;95603.41;4985654;28;20085;-66
2021/09/11 05:28:24;;;;;;;6.22;5.40;;;;;;;16.29;53.85;95603.53;4986635;28;20038;-67
2021/09/11 05:30:50;;;;;;;7.05;5.40;;;;;;;16.67;53.08;95599.19;4994332;28;20368;-67
2021/09/11 05:33:15;;;;;;;7.25;5.78;;;;;;;16.82;52.69;95602.38;4986958;28;20042;-67
2021/09/11 05:35:41;;;;;;;8.93;5.93;;;;;;;16.94;52.33;95605.19;4987528;28;20506;-66
2021/09/11 05:38:06;;;;;;;9.57;6.40;;;;;;;16.52;53.25;95613.75;4986787;28;20030;-67
2021/09/11 05:40:32;;;;;;;10.85;6.15;;;;;;;16.56;53.09;95606.09;4970253;28;20034;-67
2021/09/11 05:42:57;;;;;;;7.45;5.88;;;;;;;16.51;53.29;95606.72;4986352;28;20042;-66
2021/09/11 05:45:22;;;;;;;8.23;6.30;;;;;;;15.36;56.72;95609.78;4986684;28;20030;-67
2021/09/11 05:47:48;;;;;;;6.90;6.15;;;;;;;14.62;59.67;95613.25;4986809;28;20483;-66
2021/09/11 05:50:13;;;;;;;8.68;6.10;;;;;;;15.49;56.84;95612.47;4987912;28;20038;-66
2021/09/11 05:52:39;;;;;;;8.60;7.18;;;;;;;15.41;56.87;95615.38;4985628;28;20046;-66
2021/09/11 05:55:05;;;;;;;9.02;7.05;;;;;;;15.69;56.12;95611.63;5002757;28;20038;-67
2021/09/11 05:57:30;;;;;;;8.35;6.97;;;;;;;16.18;54.88;95624.66;4987747;28;20042;-66
2021/09/11 05:59:56;;;;;;;10.10;6.65;;;;;;;15.91;55.25;95619.38;4987478;28;20511;-66
2021/09/11 06:02:22;;;;;;;9.85;7.18;;;;;;;15.56;56.50;95622.38;4987981;28;20667;-67
2021/09/11 06:04:47;;;;;;;8.90;6.65;;;;;;;16.51;53.71;95628.22;4988961;28;20564;-67
2021/09/11 06:07:13;;;;;;;7.32;6.05;;;;;;;15.28;57.89;95634.16;4989413;28;20030;-67
2021/09/11 06:09:38;;;;;;;10.20;5.68;;;;;;;16.20;54.56;95627.94;4988677;28;20035;-67
2021/09/11 06:12:05;;;;;;;6.97;5.55;;;;;;;16.00;55.20;95625.34;4989156;28;20108;-68
2021/09/11 06:14:30;;;;;;;7.25;5.90;;;;;;;16.35;54.13;95633.06;4990593;28;20113;-67
2021/09/11 06:16:56;;;;;;;8.60;6.03;;;;;;;16.51;54.15;95630.91;4988069;28;20105;-67
2021/09/11 06:19:21;;;;;;;11.15;5.63;;;;;;;16.30;54.73;95629.34;4989922;28;20038;-67
2021/09/11 06:21:47;;;;;;;7.55;5.60;;;;;;;16.37;54.40;95627.47;4990213;28;20034;-67
2021/09/11 06:24:12;;;;;;;8.13;5.40;;;;;;;16.00;55.43;95634.22;4989917;28;20117;-67
2021/09/11 06:26:38;;;;;;;5.57;4.78;;;;;;;15.93;55.43;95632.59;4989147;28;20050;-67
2021/09/11 06:29:03;;;;;;;7.90;5.00;;;;;;;15.87;56.04;95632.41;4988551;28;20038;-67
2021/09/11 06:31:28;;;;;;;6.50;3.90;;;;;;;16.08;55.05;95624.28;4989149;28;20047;-68
2021/09/11 06:33:54;;;;;;;6.40;4.63;;;;;;;15.66;56.68;95628.13;4990094;28;20037;-68
2021/09/11 06:36:19;;;;;;;3.80;3.10;;;;;;;15.16;57.18;95644.69;4988585;28;20045;-68
2021/09/11 06:38:45;;;;;;;2.60;2.40;;;;;;;14.08;61.06;95637.25;4987811;28;20045;-67
2021/09/11 06:41:11;;;;;;;6.35;3.75;;;;;;;14.45;58.92;95637.75;4988390;28;20030;-67
2021/09/11 06:43:36;;;;;;;7.28;4.55;;;;;;;11.90;68.29;95654.28;4988920;28;20555;-66
2021/09/11 06:46:02;;;;;;;4.55;4.07;;;;;;;12.49;66.28;95652.50;4986842;28;20719;-66
2021/09/11 06:48:27;;;;;;;4.13;3.22;;;;;;;12.06;68.10;95661.25;4986370;28;20038;-65
2021/09/11 06:50:52;;;;;;;7.22;5.13;;;;;;;11.42;70.41;95662.63;4986209;28;20527;-64
2021/09/11 06:53:18;;;;;;;6.18;5.00;;;;;;;10.93;70.92;95699.31;4987053;28;20038;-64
2021/09/11 06:55:43;;;;;;;10.43;7.70;;;;;;;11.09;69.87;95680.56;4986225;28;20286;-66
2021/09/11 06:58:09;;;;;;;8.85;6.05;;;;;;;11.01;70.02;95675.28;4986299;28;20034;-65
2021/09/11 07:00:34;;;;;;;8.20;5.90;;;;;;;11.20;69.43;95673.16;4984704;28;20042;-65
2021/09/11 07:03:00;;;;;;;9.18;5.18;;;;;;;11.08;69.20;95678.88;4984553;28;20251;-65
2021/09/11 07:05:25;;;;;;;7.75;5.07;;;;;;;11.24;68.74;95669.94;4987962;28;20041;-66
2021/09/11 07:07:50;;;;;;;7.68;5.35;;;;;;;11.19;68.54;95674.16;4987344;28;20149;-66
2021/09/11 07:10:16;;;;;;;7.57;5.50;;;;;;;11.76;66.69;95671.91;4987822;28;20030;-66
2021/09/11 07:12:41;;;;;;;7.18;5.70;;;;;;;12.30;64.93;95675.28;4988485;28;20050;-66
2021/09/11 07:15:07;;;;;;;9.23;5.82;;;;;;;12.57;64.13;95680.13;4988890;28;20034;-67
2021/09/11 07:17:33;;;;;;;9.85;7.40;;;;;;;12.67;62.32;95684.13;4987661;28;20157;-66
2021/09/11 07:19:58;;;;;;;10.07;7.03;;;;;;;12.96;62.75;95684.19;4988833;28;20503;-66
2021/09/11 07:22:24;;;;;;;12.25;8.68;;;;;;;12.88;63.55;95679.78;4988927;28;20537;-67
2021/09/11 07:24:49;;;;;;;13.55;10.98;;;;;;;13.25;62.37;95681.56;4988645;28;20041;-66
2021/09/11 07:27:17;;;;;;;12.65;10.50;;;;;;;12.78;63.71;95684.63;4986620;28;20096;-67
2021/09/11 07:29:42;;;;;;;15.02;12.73;;;;;;;12.86;63.30;95689.88;4987603;28;20031;-66
2021/09/11 07:32:08;;;;;;;14.75;12.18;;;;;;;13.05;63.61;95682.22;4986750;28;20054;-66
2021/09/11 07:34:33;;;;;;;16.42;12.55;;;;;;;12.93;64.32;95685.38;4988459;28;20510;-66
2021/09/11 07:36:59;;;;;;;17.25;13.38;;;;;;;13.25;63.39;95689.59;4988555;28;20034;-66
2021/09/11 07:39:24;;;;;;;15.00;11.43;;;;;;;13.00;63.71;95684.66;4977430;28;20431;-66
2021/09/11 07:41:50;;;;;;;15.57;11.85;;;;;;;12.96;63.42;95683.38;4986980;28;20034;-66
2021/09/11 07:44:15;;;;;;;14.10;11.18;;;;;;;13.33;62.03;95694.81;4985258;28;20038;-66
2021/09/11 07:46:40;;;;;;;18.98;14.95;;;;;;;13.27;62.87;95698.25;4983605;28;20055;-65
2021/09/11 07:49:06;;;;;;;16.92;13.60;;;;;;;13.16;63.26;95700.41;4984709;28;20419;-65
2021/09/11 07:51:31;;;;;;;18.50;13.80;;;;;;;13.70;60.51;95692.81;4978593;28;20514;-66
2021/09/11 07:53:57;;;;;;;18.20;14.18;;;;;;;14.30;59.07;95701.38;4977053;28;20600;-66
2021/09/11 07:56:23;;;;;;;16.25;13.68;;;;;;;14.57;58.55;95704.16;4981941;28;20353;-66
2021/09/11 07:58:49;;;;;;;21.85;13.40;;;;;;;14.46;58.23;95700.22;4980938;28;20042;-66
2021/09/11 08:01:14;;;;;;;17.23;12.00;;;;;;;14.31;58.01;95708.41;4980640;28;20089;-65
2021/09/11 08:03:40;;;;;;;13.35;11.70;;;;;;;14.50;58.13;95708.66;4972692;28;20042;-66
2021/09/11 08:06:08;;;;;;;14.95;11.85;;;;;;;15.15;56.77;95712.72;4981856;28;20038;-65
2021/09/11 08:08:34;;;;;;;;;;;;;;;13.99;59.91;95710.69;4979308;28;20038;-66
2021/09/11 08:11:00;;;;;;;12.95;10.65;;;;;;;14.27;59.95;95717.81;4981500;28;19918;-66
2021/09/11 08:13:25;;;;;;;15.15;11.43;;;;;;;14.92;59.13;95720.13;4980044;28;20057;-65
2021/09/11 08:15:51;;;;;;;13.75;11.43;;;;;;;15.48;56.36;95712.78;4980991;28;20461;-65
2021/09/11 08:18:16;;;;;;;12.95;10.13;;;;;;;14.44;58.78;95713.78;4980333;28;20049;-66
2021/09/11 08:20:42;;;;;;;14.57;11.48;;;;;;;13.99;60.93;95713.38;4977661;28;20361;-65
2021/09/11 08:23:07;;;;;;;13.93;11.73;;;;;;;14.07;59.78;95721.22;4975484;28;20437;-65
2021/09/11 08:25:32;;;;;;;15.57;10.93;;;;;;;13.81;60.90;95731.56;4972593;28;20061;-65
2021/09/11 08:27:58;;;;;;;15.60;11.23;;;;;;;13.96;60.04;95730.66;4975901;28;20308;-65
2021/09/11 08:30:23;;;;;;;16.35;10.57;;;;;;;14.04;58.72;95737.72;4981271;28;20034;-65
2021/09/11 08:32:49;;;;;;;15.07;12.15;;;;;;;14.38;58.92;95735.19;4980576;28;20039;-66
2021/09/11 08:35:16;;;;;;;11.68;10.38;;;;;;;14.68;56.76;95746.44;4979713;28;20239;-66
2021/09/11 08:37:41;;;;;;;13.07;10.82;;;;;;;14.63;57.63;95751.56;4971323;28;20038;-65
2021/09/11 08:40:07;;;;;;;12.80;10.18;;;;;;;14.01;59.27;95746.94;4978509;28;20113;-66
2021/09/11 08:42:33;;;;;;;13.90;11.52;;;;;;;14.26;59.88;95751.84;4980049;28;20547;-66
2021/09/11 08:44:58;;;;;;;12.60;9.63;;;;;;;14.01;59.53;95754.97;4980066;28;20193;-66
2021/09/11 08:47:24;;;;;;;14.50;10.52;;;;;;;13.55;60.48;95756.28;4980638;28;20038;-66
2021/09/11 08:49:49;;;;;;;11.52;9.25;;;;;;;13.60;59.78;95753.84;4980656;28;20022;-65
2021/09/11 08:52:15;;;;;;;12.25;10.88;;;;;;;14.19;59.40;95753.63;4980517;28;20038;-66
2021/09/11 08:54:40;;;;;;;13.77;10.15;;;;;;;14.39;57.51;95752.91;4979235;28;20545;-66
2021/09/11 08:57:25;;;;;;;13.80;9.63;;;;;;;14.84;57.92;95757.84;4981448;28;20597;-66
2021/09/11 08:59:51;;;;;;;12.82;9.95;;;;;;;15.23;55.86;95760.84;4958061;28;20331;-65
2021/09/11 09:02:18;;;;;;;11.27;9.77;;;;;;;15.10;55.71;95757.06;4962337;28;20089;-65
2021/09/11 09:04:48;;;;;;;11.63;8.82;;;;;;;15.28;55.89;95760.19;4959532;28;20035;-66
2021/09/11 09:07:40;;;;;;;11.55;9.02;;;;;;;15.34;54.37;95760.19;4975466;28;20042;-66
2021/09/11 09:10:09;;;;;;;10.00;8.63;;;;;;;15.67;54.41;95760.47;4964022;28;20043;-66
2021/09/11 09:12:37;;;;;;;12.80;8.60;;;;;;;16.12;52.15;95767.84;4977309;28;20108;-67
2021/09/11 09:15:07;;;;;;;9.33;8.20;;;;;;;16.36;51.65;95755.59;4978297;28;20088;-66
2021/09/11 09:17:48;;;;;;;8.63;7.00;;;;;;;15.94;52.05;95761.25;4977086;28;20281;-66
2021/09/11 09:20:28;;;;;;;9.27;6.82;;;;;;;15.91;51.84;95768.91;4982154;28;20482;-66
2021/09/11 09:22:59;;;;;;;9.45;7.40;;;;;;;15.93;53.00;95764.97;4970226;28;20049;-66
2021/09/11 09:25:29;;;;;;;8.30;6.82;;;;;;;16.09;52.17;95760.19;4982551;28;20452;-65
2021/09/11 09:28:01;;;;;;;8.27;7.00;;;;;;;15.71;52.63;95762.50;4980836;28;20426;-66
2021/09/11 09:30:53;;;;;;;8.20;6.57;;;;;;;14.76;54.25;95772.28;4980175;28;20030;-67
2021/09/11 09:33:26;;;;;;;9.00;6.68;;;;;;;15.08;53.39;95764.50;4974943;28;20050;-65
2021/09/11 09:35:52;;;;;;;9.35;6.93;;;;;;;15.13;54.33;95768.44;4970006;28;20039;-66
2021/09/11 09:38:18;;;;;;;8.98;6.80;;;;;;;15.08;54.20;95766.34;4935973;28;20090;-66
2021/09/11 09:40:48;;;;;;;10.63;7.80;;;;;;;15.59;53.11;95767.69;4982275;28;20035;-66
2021/09/11 09:43:30;;;;;;;9.52;8.13;;;;;;;15.65;53.22;95763.34;4964719;28;20027;-66
2021/09/11 09:46:06;;;;;;;11.32;8.05;;;;;;;15.89;52.25;95761.06;4967355;28;20034;-66
2021/09/11 09:48:33;;;;;;;7.57;6.75;;;;;;;16.28;50.15;95753.13;4977258;28;20411;-66
2021/09/11 09:51:01;;;;;;;;;;;;;;;16.74;48.22;95753.19;4945250;28;20043;-66
2021/09/11 09:53:26;;;;;;;8.35;5.13;;;;;;;16.40;49.51;95761.38;4962294;28;20394;-66
2021/09/11 09:55:52;;;;;;;7.13;4.25;;;;;;;16.80;47.93;95752.34;4970834;28;20089;-66
2021/09/11 09:58:17;;;;;;;8.52;4.57;;;;;;;16.23;47.82;95750.25;4970873;28;20038;-66
2021/09/11 10:00:44;;;;;;;6.70;4.25;;;;;;;16.47;48.04;95761.34;4964327;28;20562;-66
2021/09/11 10:03:09;;;;;;;6.43;4.30;;;;;;;16.62;48.21;95756.53;4963945;28;20089;-66
2021/09/11 10:05:35;;;;;;;6.00;4.22;;;;;;;16.69;48.33;95750.31;4982124;28;20551;-66
2021/09/11 10:08:07;;;;;;;6.80;4.60;;;;;;;16.89;47.45;95750.19;4980290;28;20399;-66
2021/09/11 10:10:41;;;;;;;7.45;4.70;;;;;;;17.59;46.49;95751.22;4954781;28;20023;-66
2021/09/11 10:13:18;;;;;;;5.38;4.65;;;;;;;17.52;47.15;95761.22;4980119;28;20450;-66
2021/09/11 10:16:03;;;;;;;7.35;3.85;;;;;;;16.44;48.04;95767.97;4971482;28;20085;-66
2021/09/11 10:18:38;;;;;;;5.97;4.53;;;;;;;16.04;49.68;95776.94;4945724;29;20027;-66
2021/09/11 10:21:22;;;;;;;7.05;5.07;;;;;;;16.34;50.97;95765.72;4956137;28;20089;-66
2021/09/11 10:23:56;;;;;;;7.10;4.78;;;;;;;16.53;49.34;95760.53;4961318;28;20196;-66
2021/09/11 10:26:47;;;;;;;6.72;4.90;;;;;;;16.30;49.73;95760.97;4965667;28;20074;-66
2021/09/11 10:29:33;;;;;;;10.32;6.40;;;;;;;17.19;48.41;95757.72;4966156;28;20051;-66
2021/09/11 10:31:59;;;;;;;5.77;4.17;;;;;;;17.09;49.98;95760.00;4959575;28;20105;-66
2021/09/11 10:34:44;;;;;;;8.82;5.18;;;;;;;17.17;48.55;95748.22;4966028;28;20031;-66
2021/09/11 10:37:10;;;;;;;8.15;6.35;;;;;;;16.85;51.07;95749.81;4985544;28;20859;-66
2021/09/11 10:39:35;;;;;;;6.82;4.57;;;;;;;16.60;49.31;95752.41;4983531;28;20041;-66
2021/09/11 10:42:07;;;;;;;10.70;7.93;;;;;;;16.50;51.18;95750.19;4985365;28;20038;-66
2021/09/11 10:44:33;;;;;;;8.18;6.20;;;;;;;16.32;51.28;95750.84;4983745;28;20034;-66
2021/09/11 10:46:58;;;;;;;7.28;5.60;;;;;;;16.35;50.07;95753.94;4982998;28;20526;-66
2021/09/11 10:49:30;;;;;;;11.63;8.75;;;;;;;16.77;49.82;95748.19;4983981;28;20105;-66
2021/09/11 10:52:12;;;;;;;8.40;6.38;;;;;;;16.63;50.16;95750.13;4985696;28;20069;-66
2021/09/11 10:54:41;;;;;;;10.63;5.78;;;;;;;17.24;48.76;95749.00;4972285;28;20465;-66
2021/09/11 10:57:06;;;;;;;6.88;5.40;;;;;;;16.98;49.74;95740.84;4985346;28;20105;-66
2021/09/11 10:59:39;;;;;;;6.38;4.80;;;;;;;16.60;48.69;95736.28;4985104;28;20096;-66
2021/09/11 11:02:32;;;;;;;4.93;3.35;;;;;;;17.21;47.36;95741.38;4985307;28;20045;-66
2021/09/11 11:05:08;;;;;;;5.25;3.50;;;;;;;17.90;45.57;95732.53;4985547;28;20050;-66
2021/09/11 11:07:34;;;;;;;3.47;2.80;;;;;;;17.88;44.48;95737.34;4983224;28;20061;-66
2021/09/11 11:10:02;;;;;;;4.82;3.38;;;;;;;18.69;44.51;95741.84;4981250;28;20443;-66
2021/09/11 11:12:32;;;;;;;9.23;5.00;;;;;;;17.77;46.34;95736.97;4956416;28;20412;-66
2021/09/11 11:15:05;;;;;;;7.10;5.70;;;;;;;17.23;48.46;95737.41;4982672;28;20395;-66
2021/09/11 11:17:30;;;;;;;7.20;5.25;;;;;;;17.28;47.55;95737.56;4982867;28;20183;-66
2021/09/11 11:19:56;;;;;;;5.57;3.67;;;;;;;16.95;47.20;95743.13;4984541;28;20377;-66
2021/09/11 11:22:27;;;;;;;7.57;4.65;;;;;;;16.76;49.16;95735.78;4984675;28;20037;-66
2021/09/11 11:24:53;;;;;;;3.10;2.80;;;;;;;17.74;45.71;95734.72;4983955;28;20035;-66
2021/09/11 11:27:24;;;;;;;8.15;3.40;;;;;;;17.69;47.02;95733.75;4982375;28;20045;-66
2021/09/11 11:29:50;;;;;;;7.63;5.50;;;;;;;17.02;48.43;95736.69;4967049;28;20575;-67